createdAt,value
2022-10-12T00:00:16.714Z,100.00
2022-10-12T00:02:43.538Z,100.00
2022-10-12T00:05:09.921Z,100.00
2022-10-12T00:07:37.160Z,100.00
2022-10-12T00:10:04.243Z,100.00
2022-10-12T00:12:30.614Z,100.00
2022-10-12T00:14:57.020Z,100.00
2022-10-12T00:17:23.393Z,100.00
2022-10-12T00:19:50.407Z,100.00
2022-10-12T00:22:16.841Z,100.00
2022-10-12T00:24:43.264Z,100.00
2022-10-12T00:27:09.653Z,100.00
2022-10-12T00:29:36.073Z,100.00
2022-10-12T00:32:02.476Z,100.00
2022-10-12T00:34:28.867Z,100.00
2022-10-12T00:36:55.967Z,100.00
2022-10-12T00:39:22.455Z,100.00
2022-10-12T00:41:48.833Z,100.00
2022-10-12T00:44:39.350Z,100.00
2022-10-12T00:47:28.446Z,100.00
2022-10-12T00:53:47.384Z,100.00
2022-10-12T00:56:18.582Z,100.00
2022-10-12T00:58:46.326Z,100.00
2022-10-12T01:01:12.804Z,100.00
2022-10-12T01:03:39.527Z,100.00
2022-10-12T01:06:06.745Z,100.00
2022-10-12T01:08:33.251Z,100.00
2022-10-12T01:10:59.665Z,100.00
2022-10-12T01:13:26.307Z,100.00
2022-10-12T01:15:59.638Z,100.00
2022-10-12T01:18:32.231Z,100.00
2022-10-12T01:21:05.559Z,100.00
2022-10-12T01:24:06.021Z,100.00
2022-10-12T01:26:56.225Z,100.00
2022-10-12T01:29:51.647Z,100.00
2022-10-12T01:32:21.814Z,100.00
2022-10-12T01:34:57.663Z,100.00
2022-10-12T01:37:48.791Z,100.00
2022-10-12T01:40:39.984Z,100.00
2022-10-12T01:43:07.772Z,100.00
2022-10-12T01:45:34.351Z,100.00
2022-10-12T01:48:01.129Z,100.00
2022-10-12T01:50:38.502Z,100.00
2022-10-12T01:53:28.981Z,100.00
2022-10-12T01:56:04.677Z,100.00
2022-10-12T01:58:54.300Z,100.00
2022-10-12T02:01:26.555Z,100.00
2022-10-12T02:04:31.626Z,100.00
2022-10-12T02:07:15.113Z,100.00
2022-10-12T02:09:41.702Z,100.00
2022-10-12T02:12:12.937Z,100.00
2022-10-12T02:14:42.328Z,100.00
2022-10-12T02:17:11.734Z,100.00
2022-10-12T02:19:40.809Z,100.00
2022-10-12T02:22:08.564Z,100.00
2022-10-12T02:24:37.674Z,100.00
2022-10-12T02:27:04.088Z,100.00
2022-10-12T02:29:38.778Z,100.00
2022-10-12T02:32:22.094Z,100.00
2022-10-12T02:34:54.850Z,100.00
2022-10-12T02:37:29.064Z,100.00
2022-10-12T02:40:00.587Z,100.00
2022-10-12T02:42:32.121Z,100.00
2022-10-12T02:45:04.205Z,100.00
2022-10-12T02:47:31.873Z,100.00
2022-10-12T02:49:59.177Z,100.00
2022-10-12T02:52:25.873Z,100.00
2022-10-12T02:54:52.431Z,100.00
2022-10-12T02:57:18.829Z,100.00
2022-10-12T02:59:45.232Z,100.00
2022-10-12T03:02:11.647Z,100.00
2022-10-12T03:04:38.211Z,100.00
2022-10-12T03:07:04.624Z,100.00
2022-10-12T03:09:31.013Z,100.00
2022-10-12T03:11:57.414Z,100.00
2022-10-12T03:14:26.738Z,100.00
2022-10-12T03:16:53.290Z,100.00
2022-10-12T03:19:19.698Z,100.00
2022-10-12T03:21:46.098Z,100.00
2022-10-12T03:24:12.507Z,100.00
2022-10-12T03:26:39.423Z,100.00
2022-10-12T03:29:05.849Z,100.00
2022-10-12T03:31:32.264Z,100.00
2022-10-12T03:33:58.689Z,100.00
2022-10-12T03:36:25.120Z,100.00
2022-10-12T03:38:51.504Z,100.00
2022-10-12T03:41:18.014Z,100.00
2022-10-12T03:43:44.410Z,100.00
2022-10-12T03:46:10.823Z,100.00
2022-10-12T03:48:37.215Z,100.00
2022-10-12T03:51:03.841Z,100.00
2022-10-12T03:53:31.208Z,100.00
2022-10-12T03:55:57.617Z,100.00
2022-10-12T03:58:24.130Z,100.00
2022-10-12T04:00:54.115Z,100.00
2022-10-12T04:03:20.983Z,100.00
2022-10-12T04:05:57.647Z,100.00
2022-10-12T04:08:24.139Z,100.00
2022-10-12T04:10:50.756Z,100.00
2022-10-12T04:17:04.512Z,100.00
2022-10-12T04:23:18.231Z,100.00
2022-10-12T04:25:44.618Z,100.00
2022-10-12T04:28:11.084Z,100.00
2022-10-12T04:30:37.527Z,100.00
2022-10-12T04:33:04.216Z,100.00
2022-10-12T04:35:30.758Z,100.00
2022-10-12T04:37:57.334Z,100.00
2022-10-12T04:40:24.139Z,100.00
2022-10-12T04:42:50.548Z,100.00
2022-10-12T04:45:16.978Z,100.00
2022-10-12T04:47:43.386Z,100.00
2022-10-12T04:50:09.993Z,100.00
2022-10-12T04:52:36.384Z,100.00
2022-10-12T04:55:02.876Z,100.00
2022-10-12T04:57:29.281Z,100.00
2022-10-12T04:59:55.648Z,100.00
2022-10-12T05:02:22.122Z,100.00
2022-10-12T05:04:48.608Z,100.00
2022-10-12T05:07:15.068Z,100.00
2022-10-12T05:09:41.455Z,100.00
2022-10-12T05:15:55.718Z,100.00
2022-10-12T05:22:09.172Z,100.00
2022-10-12T05:24:35.618Z,100.00
2022-10-12T05:27:03.063Z,100.00
2022-10-12T05:29:29.455Z,100.00
2022-10-12T05:31:55.838Z,100.00
2022-10-12T05:34:22.217Z,100.00
2022-10-12T05:36:48.609Z,100.00
2022-10-12T05:39:15.006Z,100.00
2022-10-12T05:41:41.408Z,100.00
2022-10-12T05:44:07.889Z,100.00
2022-10-12T05:50:21.442Z,100.00
2022-10-12T05:52:48.084Z,100.00
2022-10-12T05:55:14.551Z,100.00
2022-10-12T05:57:40.993Z,100.00
2022-10-12T06:00:08.760Z,100.00
2022-10-12T06:02:35.629Z,100.00
2022-10-12T06:05:02.280Z,100.00
2022-10-12T06:07:28.678Z,100.00
2022-10-12T06:09:55.215Z,100.00
2022-10-12T06:12:21.625Z,100.00
2022-10-12T06:18:35.249Z,100.00
2022-10-12T06:21:28.440Z,100.00
2022-10-12T06:23:48.093Z,100.00
2022-10-12T06:26:14.537Z,100.00
2022-10-12T06:28:41.035Z,100.00
2022-10-12T06:31:07.632Z,100.00
2022-10-12T06:33:34.127Z,100.00
2022-10-12T06:36:00.578Z,100.00
2022-10-12T06:38:27.000Z,100.00
2022-10-12T06:40:53.620Z,100.00
2022-10-12T06:43:20.319Z,100.00
2022-10-12T06:45:46.730Z,100.00
2022-10-12T06:48:18.228Z,100.00
2022-10-12T06:50:45.496Z,100.00
2022-10-12T06:56:56.610Z,100.00
2022-10-12T06:59:25.129Z,100.00
2022-10-12T07:01:51.627Z,100.00
2022-10-12T07:04:18.470Z,100.00
2022-10-12T07:06:44.904Z,100.00
2022-10-12T07:09:11.343Z,100.00
2022-10-12T07:11:37.946Z,100.00
2022-10-12T07:14:04.387Z,100.00
2022-10-12T07:16:30.856Z,100.00
2022-10-12T07:18:57.285Z,100.00
2022-10-12T07:21:23.693Z,100.00
2022-10-12T07:23:50.105Z,100.00
2022-10-12T07:26:16.536Z,100.00
2022-10-12T07:28:43.079Z,100.00
2022-10-12T07:31:12.390Z,100.00
2022-10-12T07:33:38.885Z,100.00
2022-10-12T07:36:14.715Z,100.00
2022-10-12T07:38:45.102Z,100.00
2022-10-12T07:41:12.618Z,100.00
2022-10-12T07:43:39.233Z,100.00
2022-10-12T07:46:05.765Z,100.00
2022-10-12T07:48:32.460Z,100.00
2022-10-12T07:51:06.679Z,100.00
2022-10-12T07:53:37.253Z,100.00
2022-10-12T07:56:05.486Z,100.00
2022-10-12T07:58:32.395Z,100.00
2022-10-12T08:01:06.190Z,100.00
2022-10-12T08:03:32.693Z,100.00
2022-10-12T08:05:59.118Z,100.00
2022-10-12T08:12:12.484Z,100.00
2022-10-12T08:14:38.878Z,100.00
2022-10-12T08:17:06.120Z,100.00
2022-10-12T08:19:35.290Z,100.00
2022-10-12T08:22:02.147Z,100.00
2022-10-12T08:24:28.541Z,100.00
2022-10-12T08:26:57.949Z,100.00
2022-10-12T08:29:27.509Z,100.00
2022-10-12T08:35:40.884Z,100.00
2022-10-12T08:38:08.614Z,100.00
2022-10-12T08:40:55.983Z,100.00
2022-10-12T08:43:39.337Z,100.00
2022-10-12T08:46:06.011Z,100.00
2022-10-12T08:49:17.875Z,100.00
2022-10-12T08:51:48.463Z,100.00
2022-10-12T08:54:17.587Z,100.00
2022-10-12T08:56:44.751Z,100.00
2022-10-12T08:59:17.263Z,100.00
2022-10-12T09:01:46.622Z,100.00
2022-10-12T09:04:38.622Z,100.00
2022-10-12T09:07:13.054Z,100.00
2022-10-12T09:10:03.741Z,100.00
2022-10-12T09:13:01.319Z,100.00
2022-10-12T09:15:52.820Z,100.00
2022-10-12T09:18:29.453Z,100.00
2022-10-12T09:20:56.189Z,100.00
2022-10-12T09:23:26.908Z,100.00
2022-10-12T09:26:05.076Z,100.00
2022-10-12T09:28:37.734Z,100.00
2022-10-12T09:31:07.782Z,100.00
2022-10-12T09:33:46.092Z,100.00
2022-10-12T09:36:16.434Z,100.00
2022-10-12T09:38:42.886Z,100.00
2022-10-12T09:41:43.122Z,100.00
2022-10-12T09:44:17.004Z,100.00
2022-10-12T09:46:51.404Z,100.00
2022-10-12T09:49:17.894Z,100.00
2022-10-12T09:51:44.809Z,100.00
2022-10-12T09:54:18.473Z,100.00
2022-10-12T09:56:52.324Z,100.00
2022-10-12T09:59:39.372Z,100.00
2022-10-12T10:02:12.010Z,100.00
2022-10-12T10:04:39.672Z,100.00
2022-10-12T10:07:35.717Z,100.00
2022-10-12T10:10:15.814Z,100.00
2022-10-12T10:12:52.694Z,100.00
2022-10-12T10:15:21.384Z,100.00
2022-10-12T10:17:53.698Z,100.00
2022-10-12T10:20:27.003Z,100.00
2022-10-12T10:27:26.795Z,95.11
2022-10-12T10:30:29.678Z,88.12
2022-10-12T10:33:24.862Z,84.71
2022-10-12T10:36:04.327Z,83.98
2022-10-12T10:38:32.494Z,80.28
2022-10-12T10:40:59.887Z,78.60
2022-10-12T10:43:28.832Z,81.16
2022-10-12T10:45:57.470Z,81.85
2022-10-12T10:48:28.101Z,82.91
2022-10-12T10:51:02.528Z,85.46
2022-10-12T10:57:21.281Z,88.65
2022-10-12T10:59:53.974Z,86.52
2022-10-12T11:02:39.752Z,82.81
2022-10-12T11:05:14.117Z,76.39
2022-10-12T11:07:52.167Z,71.79
2022-10-12T11:10:29.203Z,71.40
2022-10-12T11:13:17.382Z,69.57
2022-10-12T11:15:48.543Z,67.90
2022-10-12T11:18:21.145Z,66.34
2022-10-12T11:20:57.737Z,65.10
2022-10-12T11:23:48.205Z,62.51
2022-10-12T11:26:22.741Z,60.05
2022-10-12T11:28:49.368Z,60.63
2022-10-12T11:31:26.439Z,61.39
2022-10-12T11:33:54.252Z,63.08
2022-10-12T11:36:23.924Z,65.23
2022-10-12T11:38:54.178Z,65.02
2022-10-12T11:41:35.455Z,66.58
2022-10-12T11:44:15.766Z,65.14
2022-10-12T11:46:47.312Z,64.55
2022-10-12T11:49:29.548Z,64.82
2022-10-12T11:51:56.649Z,64.94
2022-10-12T11:54:44.330Z,65.10
2022-10-12T11:57:16.149Z,65.00
2022-10-12T11:59:58.999Z,65.15
2022-10-12T12:02:29.258Z,67.51
2022-10-12T12:04:56.769Z,66.36
2022-10-12T12:07:23.303Z,66.37
2022-10-12T12:09:51.361Z,66.78
2022-10-12T12:12:27.060Z,67.56
2022-10-12T12:14:53.382Z,68.40
2022-10-12T12:17:19.691Z,67.15
2022-10-12T12:19:52.844Z,67.83
2022-10-12T12:22:23.654Z,67.39
2022-10-12T12:25:12.787Z,68.62
2022-10-12T12:27:43.775Z,71.13
2022-10-12T12:30:19.442Z,68.55
2022-10-12T12:32:58.174Z,67.60
2022-10-12T12:35:35.758Z,67.89
2022-10-12T12:38:03.504Z,68.40
2022-10-12T12:40:29.947Z,69.13
2022-10-12T12:43:19.494Z,69.15
2022-10-12T12:46:01.180Z,70.11
2022-10-12T12:48:50.654Z,70.03
2022-10-12T12:51:31.555Z,70.89
2022-10-12T12:54:20.253Z,70.36
2022-10-12T12:56:49.677Z,70.72
2022-10-12T12:59:46.533Z,70.51
2022-10-12T13:02:49.370Z,71.30
2022-10-12T13:05:33.319Z,71.58
2022-10-12T13:08:14.720Z,71.02
2022-10-12T13:11:18.602Z,68.43
2022-10-12T13:17:50.644Z,67.50
2022-10-12T13:20:23.011Z,67.86
2022-10-12T13:22:51.995Z,68.92
2022-10-12T13:25:28.846Z,68.58
2022-10-12T13:27:55.620Z,64.82
2022-10-12T13:30:47.046Z,60.77
2022-10-12T13:33:21.231Z,57.52
2022-10-12T13:35:53.674Z,54.69
2022-10-12T13:38:23.266Z,54.20
2022-10-12T13:40:55.761Z,53.85
2022-10-12T13:43:45.381Z,54.86
2022-10-12T13:46:36.047Z,57.27
2022-10-12T13:49:04.141Z,60.22
2022-10-12T13:51:31.084Z,61.52
2022-10-12T13:53:57.814Z,63.14
2022-10-12T13:56:29.265Z,63.97
2022-10-12T13:59:05.525Z,66.39
2022-10-12T14:01:47.909Z,67.63
2022-10-12T14:04:14.306Z,68.26
2022-10-12T14:06:40.796Z,70.37
2022-10-12T14:09:15.419Z,70.88
2022-10-12T14:11:42.702Z,71.90
2022-10-12T14:14:31.388Z,72.64
2022-10-12T14:16:57.935Z,72.17
2022-10-12T14:19:41.350Z,73.14
2022-10-12T14:22:07.978Z,73.94
2022-10-12T14:24:35.735Z,75.28
2022-10-12T14:27:04.736Z,74.63
2022-10-12T14:33:17.891Z,67.88
2022-10-12T14:35:47.939Z,64.85
2022-10-12T14:38:36.480Z,62.56
2022-10-12T14:41:41.594Z,63.63
2022-10-12T14:44:14.184Z,65.18
2022-10-12T14:46:53.822Z,66.03
2022-10-12T14:49:25.442Z,68.36
2022-10-12T14:51:53.517Z,68.34
2022-10-12T14:54:20.445Z,69.73
2022-10-12T14:56:47.261Z,71.64
2022-10-12T14:59:13.714Z,72.14
2022-10-12T15:01:41.729Z,73.72
2022-10-12T15:04:12.309Z,72.46
2022-10-12T15:06:38.747Z,74.80
2022-10-12T15:09:05.178Z,71.26
2022-10-12T15:11:31.608Z,71.54
2022-10-12T15:13:57.998Z,71.54
2022-10-12T15:16:27.011Z,69.38
2022-10-12T15:18:53.574Z,68.78
2022-10-12T15:21:20.370Z,68.35
2022-10-12T15:23:47.165Z,67.89
2022-10-12T15:26:15.773Z,67.39
2022-10-12T15:28:43.148Z,68.27
2022-10-12T15:31:17.449Z,71.21
2022-10-12T15:33:44.923Z,72.53
2022-10-12T15:36:11.596Z,72.51
2022-10-12T15:38:38.205Z,73.05
2022-10-12T15:41:04.596Z,73.40
2022-10-12T15:43:32.414Z,75.02
2022-10-12T15:46:00.233Z,74.84
2022-10-12T15:52:10.314Z,77.39
2022-10-12T15:54:36.703Z,80.79
2022-10-12T15:57:03.134Z,83.84
2022-10-12T15:59:29.637Z,88.05
2022-10-12T16:01:56.066Z,91.00
2022-10-12T16:04:22.570Z,91.89
2022-10-12T16:06:48.980Z,94.02
2022-10-12T16:09:15.361Z,97.62
2022-10-12T16:11:41.759Z,99.28
2022-10-12T16:14:10.395Z,100.00
2022-10-12T16:16:36.818Z,100.00
2022-10-12T16:19:03.288Z,100.00
2022-10-12T16:21:29.705Z,100.00
2022-10-12T16:23:56.106Z,100.00
2022-10-12T16:26:22.547Z,100.00
2022-10-12T16:28:49.003Z,100.00
2022-10-12T16:31:17.544Z,100.00
2022-10-12T16:33:44.636Z,100.00
2022-10-12T16:36:13.277Z,100.00
2022-10-12T16:38:39.706Z,100.00
2022-10-12T16:41:13.240Z,100.00
2022-10-12T16:43:39.948Z,100.00
2022-10-12T16:46:07.179Z,100.00
2022-10-12T16:48:34.030Z,100.00
2022-10-12T16:51:00.438Z,100.00
2022-10-12T16:53:27.171Z,100.00
2022-10-12T16:55:53.580Z,100.00
2022-10-12T16:58:19.995Z,100.00
2022-10-12T17:00:46.613Z,100.00
2022-10-12T17:03:14.149Z,100.00
2022-10-12T17:05:41.457Z,100.00
2022-10-12T17:08:12.547Z,100.00
2022-10-12T17:10:43.602Z,100.00
2022-10-12T17:13:10.206Z,100.00
2022-10-12T17:15:40.259Z,100.00
2022-10-12T17:18:06.690Z,100.00
2022-10-12T17:20:33.094Z,100.00
2022-10-12T17:22:59.467Z,100.00
2022-10-12T17:25:25.912Z,100.00
2022-10-12T17:27:52.316Z,100.00
2022-10-12T17:30:18.722Z,100.00
2022-10-12T17:32:45.182Z,100.00
2022-10-12T17:35:11.791Z,100.00
2022-10-12T17:37:38.213Z,100.00
2022-10-12T17:40:04.975Z,100.00
2022-10-12T17:42:31.371Z,100.00
2022-10-12T17:44:57.785Z,100.00
2022-10-12T17:47:24.175Z,100.00
2022-10-12T17:49:50.630Z,100.00
2022-10-12T17:52:17.415Z,100.00
2022-10-12T17:54:44.150Z,100.00
2022-10-12T17:57:10.928Z,100.00
2022-10-12T17:59:37.370Z,100.00
2022-10-12T18:02:09.673Z,100.00
2022-10-12T18:04:36.325Z,100.00
2022-10-12T18:07:02.739Z,100.00
2022-10-12T18:13:09.786Z,100.00
2022-10-12T18:19:23.222Z,100.00
2022-10-12T18:21:49.716Z,100.00
2022-10-12T18:24:17.523Z,100.00
2022-10-12T18:26:45.923Z,100.00
2022-10-12T18:29:12.410Z,100.00
2022-10-12T18:31:39.320Z,100.00
2022-10-12T18:34:06.143Z,100.00
2022-10-12T18:36:32.630Z,100.00
2022-10-12T18:39:04.116Z,100.00
2022-10-12T18:45:18.343Z,100.00
2022-10-12T18:47:44.775Z,100.00
2022-10-12T18:50:11.223Z,100.00
2022-10-12T18:52:37.647Z,100.00
2022-10-12T18:55:04.282Z,100.00
2022-10-12T18:57:32.746Z,100.00
2022-10-12T19:11:36.180Z,100.00
2022-10-12T19:14:07.892Z,100.00
2022-10-12T19:20:21.416Z,100.00
2022-10-12T19:22:48.885Z,100.00
2022-10-12T19:25:15.365Z,100.00
2022-10-12T19:27:41.830Z,100.00
2022-10-12T19:30:09.182Z,100.00
2022-10-12T19:32:35.623Z,100.00
2022-10-12T19:35:02.036Z,100.00
2022-10-12T19:37:28.482Z,100.00
2022-10-12T19:39:55.180Z,100.00
2022-10-12T19:42:21.628Z,100.00
2022-10-12T19:44:48.067Z,100.00
2022-10-12T19:47:14.585Z,100.00
2022-10-12T19:49:45.198Z,100.00
2022-10-12T19:52:11.903Z,100.00
2022-10-12T19:54:38.311Z,100.00
2022-10-12T19:57:04.729Z,100.00
2022-10-12T20:03:11.794Z,100.00
2022-10-12T20:05:38.180Z,100.00
2022-10-12T20:08:04.661Z,100.00
2022-10-12T20:10:31.117Z,100.00
2022-10-12T20:12:57.587Z,100.00
2022-10-12T20:19:11.653Z,100.00
2022-10-12T20:25:25.354Z,100.00
2022-10-12T20:27:51.781Z,100.00
2022-10-12T20:30:18.210Z,100.00
2022-10-12T20:32:44.789Z,100.00
2022-10-12T20:35:11.183Z,100.00
2022-10-12T20:37:37.699Z,100.00
2022-10-12T20:40:04.686Z,100.00
2022-10-12T20:42:31.082Z,100.00
2022-10-12T20:44:57.463Z,100.00
2022-10-12T20:47:25.845Z,100.00
2022-10-12T20:49:52.392Z,100.00
2022-10-12T20:52:19.428Z,100.00
2022-10-12T20:54:45.979Z,100.00
2022-10-12T20:57:12.378Z,100.00
2022-10-12T20:59:39.213Z,100.00
2022-10-12T21:02:05.707Z,100.00
2022-10-12T21:04:37.499Z,100.00
2022-10-12T21:07:04.783Z,100.00
2022-10-12T21:09:31.165Z,100.00
2022-10-12T21:11:57.622Z,100.00
2022-10-12T21:14:26.359Z,100.00
2022-10-12T21:16:53.130Z,100.00
2022-10-12T21:19:19.523Z,100.00
2022-10-12T21:21:48.826Z,100.00
2022-10-12T21:24:15.365Z,100.00
2022-10-12T21:26:42.275Z,100.00
2022-10-12T21:29:09.069Z,100.00
2022-10-12T21:31:35.524Z,100.00
2022-10-12T21:34:04.632Z,100.00
2022-10-12T21:36:31.923Z,100.00
2022-10-12T21:38:58.577Z,100.00
2022-10-12T21:41:27.769Z,100.00
2022-10-12T21:43:54.292Z,100.00
2022-10-12T21:46:22.455Z,100.00
2022-10-12T21:48:49.135Z,100.00
2022-10-12T21:51:16.465Z,100.00
2022-10-12T21:53:42.862Z,100.00
2022-10-12T21:56:30.507Z,100.00
2022-10-12T21:58:59.262Z,100.00
2022-10-12T22:01:35.179Z,100.00
2022-10-12T22:04:06.237Z,100.00
2022-10-12T22:06:32.867Z,100.00
2022-10-12T22:09:05.439Z,100.00
2022-10-12T22:11:33.251Z,100.00
2022-10-12T22:14:01.754Z,100.00
2022-10-12T22:16:29.345Z,100.00
2022-10-12T22:18:59.769Z,100.00
2022-10-12T22:21:26.829Z,100.00
2022-10-12T22:23:53.570Z,100.00
2022-10-12T22:26:21.590Z,100.00
2022-10-12T22:28:48.490Z,100.00
2022-10-12T22:31:15.936Z,100.00
2022-10-12T22:33:42.631Z,100.00
2022-10-12T22:36:11.628Z,100.00
2022-10-12T22:38:38.026Z,100.00
2022-10-12T22:41:10.713Z,100.00
2022-10-12T22:43:37.681Z,100.00
2022-10-12T22:46:04.776Z,100.00
2022-10-12T22:48:31.750Z,100.00
2022-10-12T22:50:58.157Z,100.00
2022-10-12T22:53:25.313Z,100.00
2022-10-12T22:56:02.988Z,100.00
2022-10-12T22:58:30.148Z,100.00
2022-10-12T23:01:11.709Z,100.00
2022-10-12T23:03:39.163Z,100.00
2022-10-12T23:06:06.907Z,100.00
2022-10-12T23:08:33.543Z,100.00
2022-10-12T23:11:11.512Z,100.00
2022-10-12T23:13:38.921Z,100.00
2022-10-12T23:16:14.339Z,100.00
2022-10-12T23:18:41.013Z,100.00
2022-10-12T23:21:09.679Z,100.00
2022-10-12T23:23:37.264Z,100.00
2022-10-12T23:26:06.744Z,100.00
2022-10-12T23:28:33.605Z,100.00
2022-10-12T23:31:03.506Z,100.00
2022-10-12T23:33:29.981Z,100.00
2022-10-12T23:35:57.981Z,100.00
2022-10-12T23:38:25.139Z,100.00
2022-10-12T23:40:51.539Z,100.00
2022-10-12T23:43:17.963Z,100.00
2022-10-12T23:45:44.737Z,100.00
2022-10-12T23:48:11.202Z,100.00
2022-10-12T23:50:38.949Z,100.00
2022-10-12T23:56:52.212Z,100.00
2022-10-12T23:59:18.609Z,100.00
